Time;durP1;ratioP1;P1;durP2;ratioP2;P2;SDS_P1;SDS_P2;PMS_P1;PMS_P2;Temp;Humidity;BMP_temperature;BMP_pressure;BME280_temperature;BME280_humidity;BME280_pressure;Samples;Min_cycle;Max_cycle;Signal;HPM_P1;HPM_P2
2021/04/18 00:01:10;;;;;;;4.57;2.90;;;6.20;99.90;;;;;;469395;248;27991;-75
2021/04/18 00:03:11;;;;;;;3.07;2.70;;;6.20;99.90;;;;;;469445;247;27514;-75
2021/04/18 00:05:12;;;;;;;3.60;2.80;;;6.20;99.90;;;;;;469531;252;27721;-75
2021/04/18 00:07:14;;;;;;;4.60;3.10;;;6.20;99.90;;;;;;469488;247;28069;-77
2021/04/18 00:09:15;;;;;;;3.10;2.50;;;6.20;99.90;;;;;;469432;247;28987;-77
2021/04/18 00:11:16;;;;;;;3.80;2.97;;;6.30;99.90;;;;;;469375;247;29257;-79
2021/04/18 00:13:18;;;;;;;4.63;3.07;;;6.30;99.90;;;;;;469361;247;28258;-77
2021/04/18 00:15:19;;;;;;;4.43;3.17;;;6.20;99.90;;;;;;469420;247;28761;-80
2021/04/18 00:17:20;;;;;;;4.80;3.30;;;6.20;99.90;;;;;;469423;247;28694;-76
2021/04/18 00:19:21;;;;;;;7.50;3.67;;;6.20;99.90;;;;;;469393;252;28245;-76
2021/04/18 00:21:22;;;;;;;5.95;3.33;;;6.20;99.90;;;;;;469370;247;27977;-77
2021/04/18 00:23:24;;;;;;;8.53;4.33;;;6.20;99.90;;;;;;469294;247;27540;-76
2021/04/18 00:25:25;;;;;;;8.23;4.03;;;6.20;99.90;;;;;;469331;247;28967;-78
2021/04/18 00:27:26;;;;;;;5.77;3.33;;;6.20;99.90;;;;;;469372;247;27512;-81
2021/04/18 00:29:27;;;;;;;5.13;3.47;;;6.20;99.90;;;;;;469366;252;28015;-77
2021/04/18 00:31:29;;;;;;;4.37;3.10;;;6.20;99.90;;;;;;469303;247;28031;-79
2021/04/18 00:33:30;;;;;;;5.28;3.75;;;6.20;99.90;;;;;;469675;250;29420;-78
2021/04/18 00:35:31;;;;;;;5.37;3.10;;;6.20;99.90;;;;;;469839;252;28056;-77
2021/04/18 00:37:32;;;;;;;5.97;2.97;;;6.10;99.90;;;;;;469918;250;28872;-77
2021/04/18 00:39:35;;;;;;;4.37;2.63;;;6.10;99.90;;;;;;469760;250;27832;-76
2021/04/18 00:41:35;;;;;;;4.80;2.50;;;6.10;99.90;;;;;;469774;250;27706;-76
2021/04/18 00:43:36;;;;;;;3.80;2.70;;;6.00;99.90;;;;;;469813;250;27908;-78
2021/04/18 00:45:37;;;;;;;2.50;2.30;;;6.00;99.90;;;;;;469871;252;28253;-77
2021/04/18 00:47:39;;;;;;;6.10;2.87;;;6.10;99.90;;;;;;469924;250;28846;-78
2021/04/18 00:49:40;;;;;;;3.93;2.70;;;6.00;99.90;;;;;;470168;250;27877;-76
2021/04/18 00:51:41;;;;;;;3.93;2.30;;;6.00;99.90;;;;;;469941;250;28001;-76
2021/04/18 00:53:42;;;;;;;2.50;2.27;;;6.10;99.90;;;;;;469830;251;28323;-77
2021/04/18 00:55:44;;;;;;;3.65;2.60;;;6.10;99.90;;;;;;469858;250;27987;-77
2021/04/18 00:57:45;;;;;;;2.83;2.40;;;6.10;99.90;;;;;;469870;250;28147;-75
2021/04/18 00:59:46;;;;;;;5.57;3.20;;;6.00;99.90;;;;;;469796;252;29590;-76
2021/04/18 01:01:48;;;;;;;3.42;2.42;;;6.00;99.90;;;;;;469892;250;28253;-76
2021/04/18 01:03:49;;;;;;;2.50;2.30;;;6.00;99.90;;;;;;469801;252;27393;-75
2021/04/18 01:05:50;;;;;;;4.00;2.57;;;6.00;99.90;;;;;;469830;249;27857;-76
2021/04/18 01:07:51;;;;;;;3.62;2.83;;;6.00;99.90;;;;;;469836;252;28839;-75
2021/04/18 01:09:53;;;;;;;3.20;2.80;;;6.00;99.90;;;;;;469801;250;27435;-76
2021/04/18 01:11:55;;;;;;;5.63;2.70;;;6.00;99.90;;;;;;469548;250;28310;-77
2021/04/18 01:13:56;;;;;;;3.20;2.57;;;6.00;99.90;;;;;;469489;252;27814;-76
2021/04/18 01:15:57;;;;;;;3.63;2.43;;;6.00;99.90;;;;;;469859;252;27973;-76
2021/04/18 01:17:58;;;;;;;5.00;2.97;;;6.00;99.90;;;;;;469930;250;29093;-76
2021/04/18 01:20:00;;;;;;;4.60;2.73;;;5.90;99.90;;;;;;469803;252;29031;-76
2021/04/18 01:22:01;;;;;;;3.40;2.30;;;6.00;99.90;;;;;;470009;250;28384;-78
2021/04/18 01:24:02;;;;;;;5.87;2.70;;;6.00;99.90;;;;;;469876;250;29477;-76
2021/04/18 01:26:03;;;;;;;2.70;2.50;;;5.90;99.90;;;;;;469746;250;28824;-76
2021/04/18 01:28:05;;;;;;;3.00;2.50;;;5.90;99.90;;;;;;469845;252;28019;-78
2021/04/18 01:30:06;;;;;;;2.30;2.10;;;5.90;99.90;;;;;;469793;252;28902;-78
2021/04/18 01:32:07;;;;;;;3.23;2.57;;;5.80;99.90;;;;;;469779;250;28432;-76
2021/04/18 01:34:08;;;;;;;3.00;2.70;;;5.80;99.90;;;;;;469833;250;28128;-77
2021/04/18 01:36:10;;;;;;;3.30;2.50;;;5.80;99.90;;;;;;469790;250;27438;-76
2021/04/18 01:38:11;;;;;;;2.63;2.40;;;5.80;99.90;;;;;;469800;250;28838;-79
2021/04/18 01:40:12;;;;;;;4.30;2.50;;;5.80;99.90;;;;;;469772;250;27638;-75
2021/04/18 01:42:13;;;;;;;3.50;2.40;;;5.80;99.90;;;;;;469892;249;27980;-76
2021/04/18 01:44:15;;;;;;;3.20;2.70;;;5.80;99.90;;;;;;469905;250;28847;-79
2021/04/18 01:46:16;;;;;;;4.77;2.60;;;5.80;99.90;;;;;;469862;250;28946;-77
2021/04/18 01:48:17;;;;;;;3.17;2.50;;;5.80;99.90;;;;;;469744;251;28304;-77
2021/04/18 01:50:18;;;;;;;4.53;2.42;;;5.80;99.90;;;;;;469774;250;28262;-75
2021/04/18 01:52:20;;;;;;;3.17;2.87;;;5.90;99.90;;;;;;469833;252;27505;-76
2021/04/18 01:54:21;;;;;;;4.40;2.90;;;5.80;99.90;;;;;;469721;252;28790;-76
2021/04/18 01:56:22;;;;;;;2.97;2.67;;;5.80;99.90;;;;;;469820;250;28692;-79
2021/04/18 01:58:23;;;;;;;4.97;2.90;;;5.80;99.90;;;;;;469809;252;27874;-79
2021/04/18 02:00:25;;;;;;;3.67;2.60;;;5.80;99.90;;;;;;469676;250;27412;-77
2021/04/18 02:02:26;;;;;;;3.45;2.55;;;5.80;99.90;;;;;;469702;249;27478;-77
2021/04/18 02:04:27;;;;;;;3.40;2.90;;;5.80;99.90;;;;;;469782;250;28210;-76
2021/04/18 02:06:28;;;;;;;3.80;2.83;;;5.80;99.90;;;;;;469805;250;28588;-79
2021/04/18 02:08:30;;;;;;;5.57;3.37;;;5.90;99.90;;;;;;469832;249;29232;-76
2021/04/18 02:10:31;;;;;;;4.05;3.37;;;5.90;99.90;;;;;;469837;250;28685;-76
2021/04/18 02:12:32;;;;;;;4.93;3.43;;;5.80;99.90;;;;;;469859;250;27377;-77
2021/04/18 02:14:34;;;;;;;5.80;3.53;;;5.80;99.90;;;;;;469739;252;28939;-78
2021/04/18 02:16:35;;;;;;;4.20;3.73;;;5.80;99.90;;;;;;469848;250;29150;-76
2021/04/18 02:18:36;;;;;;;4.03;3.42;;;5.90;99.90;;;;;;469743;251;28754;-76
2021/04/18 02:20:37;;;;;;;4.50;3.40;;;5.90;99.90;;;;;;469817;250;27413;-77
2021/04/18 02:22:39;;;;;;;4.40;3.80;;;5.80;99.90;;;;;;469800;250;27505;-77
2021/04/18 02:24:40;;;;;;;4.60;3.20;;;5.80;99.90;;;;;;469954;252;29541;-76
2021/04/18 02:26:41;;;;;;;3.73;3.33;;;5.80;99.90;;;;;;469706;249;29464;-77
2021/04/18 02:28:42;;;;;;;4.05;3.35;;;5.80;99.90;;;;;;469716;252;29587;-79
2021/04/18 02:30:44;;;;;;;3.80;2.80;;;5.80;99.90;;;;;;469816;250;27818;-76
2021/04/18 02:32:45;;;;;;;4.57;3.17;;;5.80;99.90;;;;;;470321;250;27421;-75
2021/04/18 02:34:46;;;;;;;3.50;3.20;;;5.70;99.90;;;;;;469823;250;27402;-77
2021/04/18 02:36:47;;;;;;;4.33;3.13;;;5.70;99.90;;;;;;469859;252;27394;-78
2021/04/18 02:38:49;;;;;;;4.85;3.08;;;5.70;99.90;;;;;;469824;250;28601;-76
2021/04/18 02:40:50;;;;;;;4.40;3.13;;;5.70;99.90;;;;;;469794;250;28350;-75
2021/04/18 02:42:51;;;;;;;4.03;3.40;;;5.70;99.90;;;;;;469824;250;28963;-76
2021/04/18 02:44:52;;;;;;;3.70;3.20;;;5.70;99.90;;;;;;469781;250;27489;-76
2021/04/18 02:46:54;;;;;;;4.40;3.10;;;5.80;99.90;;;;;;469737;250;29214;-77
2021/04/18 02:48:55;;;;;;;5.07;3.70;;;5.70;99.90;;;;;;469756;250;29135;-76
2021/04/18 02:50:56;;;;;;;5.30;3.65;;;5.80;99.90;;;;;;469728;250;27613;-77
2021/04/18 02:52:57;;;;;;;4.47;3.40;;;5.80;99.90;;;;;;469836;250;27534;-78
2021/04/18 02:54:59;;;;;;;4.87;3.27;;;5.70;99.90;;;;;;469716;252;27509;-78
2021/04/18 02:57:00;;;;;;;3.50;3.00;;;5.70;99.90;;;;;;469786;250;28936;-76
2021/04/18 02:59:01;;;;;;;7.12;3.47;;;5.70;99.90;;;;;;469797;249;28064;-76
2021/04/18 03:01:02;;;;;;;4.45;3.72;;;5.70;99.90;;;;;;469811;250;27812;-76
2021/04/18 03:03:04;;;;;;;4.63;3.83;;;5.70;99.90;;;;;;469838;250;27414;-75
2021/04/18 03:05:05;;;;;;;7.30;3.97;;;5.70;99.90;;;;;;469834;250;28048;-76
2021/04/18 03:07:06;;;;;;;5.67;3.77;;;5.70;99.90;;;;;;469799;250;27409;-77
2021/04/18 03:09:07;;;;;;;4.53;3.78;;;5.70;99.90;;;;;;469859;250;28298;-77
2021/04/18 03:11:09;;;;;;;6.00;4.20;;;5.70;99.90;;;;;;469778;250;27541;-81
2021/04/18 03:13:10;;;;;;;4.07;3.60;;;5.70;99.90;;;;;;469786;250;28644;-76
2021/04/18 03:15:11;;;;;;;8.93;3.87;;;5.70;99.90;;;;;;469855;250;28247;-78
2021/04/18 03:17:13;;;;;;;5.28;3.95;;;5.70;99.90;;;;;;469782;249;27666;-77
2021/04/18 03:19:14;;;;;;;8.20;4.28;;;5.70;99.90;;;;;;469838;252;27533;-78
2021/04/18 03:21:15;;;;;;;6.65;4.25;;;5.70;99.90;;;;;;469713;250;27851;-76
2021/04/18 03:23:16;;;;;;;6.43;3.73;;;5.70;99.90;;;;;;469774;252;27617;-76
2021/04/18 03:25:17;;;;;;;7.30;3.97;;;5.70;99.90;;;;;;469781;250;28646;-77
2021/04/18 03:27:19;;;;;;;8.43;4.40;;;5.70;99.90;;;;;;469820;250;28690;-75
2021/04/18 03:29:20;;;;;;;5.70;3.90;;;5.80;99.90;;;;;;469721;250;27669;-78
2021/04/18 03:31:21;;;;;;;5.50;4.03;;;5.80;99.90;;;;;;469830;250;27647;-76
2021/04/18 03:33:22;;;;;;;6.22;4.35;;;5.70;99.90;;;;;;469962;250;28188;-75
2021/04/18 03:35:24;;;;;;;4.50;3.73;;;5.60;99.90;;;;;;469758;250;27394;-76
2021/04/18 03:37:25;;;;;;;3.80;3.00;;;5.60;99.90;;;;;;469822;250;27620;-77
2021/04/18 03:39:26;;;;;;;4.57;3.40;;;5.60;99.90;;;;;;469806;250;27902;-78
2021/04/18 03:41:27;;;;;;;3.92;2.87;;;5.50;99.90;;;;;;469766;250;27505;-77
2021/04/18 03:43:29;;;;;;;3.42;3.10;;;5.50;99.90;;;;;;469863;250;27568;-76
2021/04/18 03:45:30;;;;;;;7.10;3.30;;;5.50;99.90;;;;;;469839;250;27506;-75
2021/04/18 03:47:31;;;;;;;5.17;3.40;;;5.50;99.90;;;;;;469973;252;29109;-76
2021/04/18 03:49:32;;;;;;;4.40;3.30;;;5.40;99.90;;;;;;469850;250;29530;-76
2021/04/18 03:51:34;;;;;;;3.47;3.00;;;5.40;99.90;;;;;;469880;250;29247;-75
2021/04/18 03:53:35;;;;;;;4.72;3.20;;;5.40;99.90;;;;;;469881;250;29000;-76
2021/04/18 03:55:36;;;;;;;5.37;3.22;;;5.40;99.90;;;;;;469908;250;27425;-78
2021/04/18 03:57:38;;;;;;;4.65;2.75;;;5.40;99.90;;;;;;469845;251;27454;-75
2021/04/18 03:59:39;;;;;;;4.60;3.10;;;5.30;99.90;;;;;;469782;249;27597;-78
2021/04/18 04:01:40;;;;;;;4.12;3.00;;;5.30;99.90;;;;;;469621;250;27518;-76
2021/04/18 04:03:41;;;;;;;4.93;3.00;;;5.40;99.90;;;;;;469798;252;27556;-76
2021/04/18 04:05:43;;;;;;;7.22;2.97;;;5.40;99.90;;;;;;470009;250;28354;-76
2021/04/18 04:07:44;;;;;;;2.95;2.60;;;5.40;99.90;;;;;;469723;251;27409;-76
2021/04/18 04:09:45;;;;;;;3.42;3.00;;;5.40;99.90;;;;;;469764;251;27489;-78
2021/04/18 04:11:46;;;;;;;3.58;3.05;;;5.40;99.90;;;;;;469820;250;27489;-77
2021/04/18 04:13:48;;;;;;;3.65;3.35;;;5.40;99.90;;;;;;469770;250;27422;-80
2021/04/18 04:15:49;;;;;;;3.75;3.15;;;5.40;99.90;;;;;;469744;250;27517;-76
2021/04/18 04:17:50;;;;;;;4.80;2.90;;;5.50;99.90;;;;;;469735;250;28275;-77
2021/04/18 04:19:51;;;;;;;7.63;3.30;;;5.50;99.90;;;;;;469735;252;28904;-76
2021/04/18 04:21:53;;;;;;;4.87;3.22;;;5.40;99.90;;;;;;469755;250;29744;-76
2021/04/18 04:23:54;;;;;;;4.80;3.62;;;5.40;99.90;;;;;;469736;251;27517;-76
2021/04/18 04:25:55;;;;;;;5.80;3.92;;;5.40;99.90;;;;;;469696;250;27390;-80
2021/04/18 04:27:56;;;;;;;5.82;4.87;;;5.30;99.90;;;;;;469753;250;27494;-75
2021/04/18 04:29:58;;;;;;;6.28;4.53;;;5.30;99.90;;;;;;469764;250;27428;-75
2021/04/18 04:31:59;;;;;;;6.80;5.12;;;5.30;99.90;;;;;;469771;250;27483;-75
2021/04/18 04:34:00;;;;;;;6.35;4.62;;;5.20;99.90;;;;;;469756;252;27533;-76
2021/04/18 04:36:01;;;;;;;8.60;5.25;;;5.20;99.90;;;;;;469822;250;28278;-75
2021/04/18 04:38:03;;;;;;;8.20;5.05;;;5.20;99.90;;;;;;469726;250;27453;-76
2021/04/18 04:40:04;;;;;;;7.50;4.80;;;5.20;99.90;;;;;;469814;250;27663;-77
2021/04/18 04:42:05;;;;;;;6.45;4.75;;;5.10;99.90;;;;;;469715;250;27549;-77
2021/04/18 04:44:08;;;;;;;6.30;5.13;;;5.10;99.90;;;;;;469700;250;27501;-77
2021/04/18 04:46:08;;;;;;;7.30;5.15;;;5.10;99.90;;;;;;470094;252;28868;-76
2021/04/18 04:48:09;;;;;;;6.03;4.62;;;5.10;99.90;;;;;;470153;252;27945;-75
2021/04/18 04:50:10;;;;;;;9.20;5.50;;;5.10;99.90;;;;;;470041;252;27964;-77
2021/04/18 04:52:11;;;;;;;5.25;4.55;;;5.10;99.90;;;;;;469978;249;27953;-76
2021/04/18 04:54:13;;;;;;;5.25;4.60;;;5.10;99.90;;;;;;470251;250;27414;-75
2021/04/18 04:56:14;;;;;;;8.80;4.32;;;5.10;99.90;;;;;;470136;250;27402;-76
2021/04/18 04:58:15;;;;;;;6.97;4.97;;;5.20;99.90;;;;;;470305;252;27526;-76
2021/04/18 05:00:17;;;;;;;6.20;4.62;;;5.10;99.90;;;;;;470240;250;27493;-76
2021/04/18 05:02:18;;;;;;;10.93;5.68;;;5.00;99.90;;;;;;470015;250;28072;-75
2021/04/18 05:04:19;;;;;;;6.43;5.03;;;5.00;99.90;;;;;;469895;252;27855;-77
2021/04/18 05:06:20;;;;;;;7.05;4.80;;;5.00;99.90;;;;;;470149;250;27525;-75
2021/04/18 05:08:22;;;;;;;7.20;4.62;;;5.00;99.90;;;;;;470162;252;27467;-78
2021/04/18 05:10:23;;;;;;;8.05;5.50;;;4.90;99.90;;;;;;470252;250;27451;-78
2021/04/18 05:12:24;;;;;;;8.07;4.80;;;5.00;99.90;;;;;;470192;252;27486;-75
2021/04/18 05:14:25;;;;;;;5.87;3.97;;;5.00;99.90;;;;;;470200;252;28219;-76
2021/04/18 05:16:27;;;;;;;5.87;4.57;;;5.00;99.90;;;;;;469741;252;29617;-75
2021/04/18 05:18:28;;;;;;;12.43;4.95;;;5.00;99.90;;;;;;469748;250;27590;-75
2021/04/18 05:20:29;;;;;;;7.28;4.20;;;5.00;99.90;;;;;;469608;250;27421;-75
2021/04/18 05:22:30;;;;;;;7.82;4.80;;;5.00;99.90;;;;;;469300;252;27594;-76
2021/04/18 05:24:32;;;;;;;7.30;5.30;;;5.00;99.90;;;;;;469829;249;27529;-77
2021/04/18 05:26:33;;;;;;;5.70;4.37;;;5.00;99.90;;;;;;469643;252;27524;-78
2021/04/18 05:28:34;;;;;;;5.45;4.05;;;5.00;99.90;;;;;;469946;250;28199;-76
2021/04/18 05:30:35;;;;;;;7.00;4.27;;;5.00;99.90;;;;;;470050;249;28207;-75
2021/04/18 05:32:37;;;;;;;6.60;4.20;;;4.90;99.90;;;;;;470031;250;29155;-79
2021/04/18 05:34:38;;;;;;;7.82;4.45;;;4.90;99.90;;;;;;469731;250;27413;-76
2021/04/18 05:36:39;;;;;;;7.28;3.90;;;4.90;99.90;;;;;;469357;250;27381;-76
2021/04/18 05:38:41;;;;;;;7.15;3.78;;;4.90;99.90;;;;;;469737;252;27510;-81
2021/04/18 05:40:42;;;;;;;4.00;3.60;;;5.00;99.90;;;;;;470061;251;27386;-76
2021/04/18 05:42:43;;;;;;;4.10;3.65;;;5.00;99.90;;;;;;469931;252;28346;-76
2021/04/18 05:44:44;;;;;;;5.27;4.07;;;5.10;99.90;;;;;;469882;252;28073;-75
2021/04/18 05:46:45;;;;;;;4.65;3.25;;;5.10;99.90;;;;;;470008;250;28728;-77
2021/04/18 05:48:47;;;;;;;9.02;3.95;;;5.20;99.90;;;;;;469988;252;27413;-77
2021/04/18 05:50:48;;;;;;;9.15;5.40;;;5.20;99.90;;;;;;469793;249;27574;-76
2021/04/18 05:52:49;;;;;;;7.40;5.80;;;5.30;99.90;;;;;;469904;250;27394;-75
2021/04/18 05:54:50;;;;;;;10.68;6.78;;;5.30;99.90;;;;;;469909;250;27770;-78
2021/04/18 05:56:52;;;;;;;12.13;7.03;;;5.30;99.90;;;;;;469750;252;27639;-77
2021/04/18 05:58:53;;;;;;;9.47;5.60;;;5.40;99.90;;;;;;470139;250;28109;-76
2021/04/18 06:00:55;;;;;;;10.30;6.40;;;5.50;99.90;;;;;;469953;250;28413;-76
2021/04/18 06:02:55;;;;;;;9.75;6.80;;;5.50;99.90;;;;;;470001;250;27495;-76
2021/04/18 06:04:57;;;;;;;10.20;6.60;;;5.60;99.90;;;;;;469869;249;27398;-75
2021/04/18 06:06:58;;;;;;;12.90;7.37;;;5.70;99.90;;;;;;469820;252;28995;-77
2021/04/18 06:08:59;;;;;;;11.20;7.83;;;5.80;99.90;;;;;;469696;251;28009;-79
2021/04/18 06:11:01;;;;;;;15.17;7.97;;;5.80;99.90;;;;;;469845;250;27863;-76
2021/04/18 06:13:02;;;;;;;16.73;8.77;;;5.90;99.90;;;;;;469792;252;27955;-76
2021/04/18 06:15:03;;;;;;;18.73;8.97;;;6.00;99.90;;;;;;469775;249;28729;-76
2021/04/18 06:17:04;;;;;;;11.90;7.90;;;6.00;99.90;;;;;;469788;250;28639;-76
2021/04/18 06:19:06;;;;;;;12.50;7.50;;;6.00;99.90;;;;;;469825;250;29272;-79
2021/04/18 06:21:07;;;;;;;10.60;7.47;;;6.00;99.90;;;;;;469938;250;27902;-77
2021/04/18 06:23:08;;;;;;;12.50;7.10;;;6.10;99.90;;;;;;469774;250;27633;-78
2021/04/18 06:25:09;;;;;;;11.17;7.40;;;6.10;99.90;;;;;;469748;250;28397;-77
2021/04/18 06:27:11;;;;;;;12.87;7.33;;;6.10;99.90;;;;;;469924;250;27821;-75
2021/04/18 06:29:12;;;;;;;9.60;6.80;;;6.10;99.90;;;;;;470059;250;28074;-77
2021/04/18 06:31:13;;;;;;;13.87;7.30;;;6.20;99.90;;;;;;469768;250;27952;-76
2021/04/18 06:33:14;;;;;;;11.10;7.03;;;6.30;99.90;;;;;;469793;250;27630;-76
2021/04/18 06:35:16;;;;;;;11.40;7.00;;;6.30;99.90;;;;;;469714;250;28015;-78
2021/04/18 06:37:17;;;;;;;10.73;7.10;;;6.40;99.90;;;;;;469806;251;27900;-75
2021/04/18 06:39:18;;;;;;;8.70;7.10;;;6.50;99.90;;;;;;469801;250;27958;-76
2021/04/18 06:41:19;;;;;;;10.83;6.13;;;6.60;99.90;;;;;;469819;250;28852;-77
2021/04/18 06:43:21;;;;;;;9.03;6.23;;;6.60;99.90;;;;;;469840;251;28489;-76
2021/04/18 06:45:22;;;;;;;10.00;5.53;;;6.60;99.90;;;;;;470078;250;28604;-77
2021/04/18 06:47:23;;;;;;;8.63;5.73;;;6.70;99.90;;;;;;469924;250;27951;-76
2021/04/18 06:49:24;;;;;;;8.43;5.80;;;6.70;99.90;;;;;;470060;250;27890;-77
2021/04/18 06:51:26;;;;;;;8.60;5.70;;;6.70;99.90;;;;;;469910;250;27612;-75
2021/04/18 06:53:27;;;;;;;8.87;5.97;;;6.80;99.90;;;;;;469839;252;28215;-79
2021/04/18 06:55:29;;;;;;;6.83;5.30;;;6.90;99.90;;;;;;469790;250;27860;-78
2021/04/18 06:57:29;;;;;;;8.33;5.40;;;7.00;99.90;;;;;;469731;252;27891;-79
2021/04/18 06:59:31;;;;;;;10.83;6.47;;;7.10;99.90;;;;;;469873;252;27884;-76
2021/04/18 07:01:32;;;;;;;7.73;5.23;;;7.10;99.90;;;;;;470293;250;27925;-77
2021/04/18 07:03:33;;;;;;;7.43;5.70;;;7.10;99.90;;;;;;470338;249;27892;-76
2021/04/18 07:05:34;;;;;;;10.57;5.70;;;7.20;99.90;;;;;;470302;252;27972;-77
2021/04/18 07:07:36;;;;;;;9.20;6.60;;;7.30;99.90;;;;;;470378;252;27738;-75
2021/04/18 07:09:37;;;;;;;12.87;7.13;;;7.40;99.90;;;;;;470175;252;28106;-76
2021/04/18 07:11:38;;;;;;;12.43;7.63;;;7.40;99.90;;;;;;470121;249;28274;-77
2021/04/18 07:13:39;;;;;;;10.70;7.63;;;7.30;99.90;;;;;;470163;252;28315;-77
2021/04/18 07:15:41;;;;;;;13.67;7.10;;;7.30;99.90;;;;;;470113;252;28050;-74
2021/04/18 07:17:42;;;;;;;11.73;6.70;;;7.20;99.90;;;;;;470150;249;28005;-77
2021/04/18 07:19:43;;;;;;;10.37;7.00;;;7.40;99.90;;;;;;470081;252;27867;-76
2021/04/18 07:21:45;;;;;;;12.73;8.67;;;7.50;99.90;;;;;;469939;249;27854;-78
2021/04/18 07:23:46;;;;;;;21.30;8.73;;;7.20;99.90;;;;;;470069;252;27855;-75
2021/04/18 07:25:47;;;;;;;10.73;8.30;;;7.20;99.90;;;;;;470119;252;27715;-76
2021/04/18 07:27:48;;;;;;;12.33;8.73;;;7.10;99.90;;;;;;470067;252;27609;-76
2021/04/18 07:29:49;;;;;;;12.90;8.23;;;7.10;99.90;;;;;;470263;252;27949;-75
2021/04/18 07:31:51;;;;;;;14.30;9.27;;;7.20;99.90;;;;;;469937;250;28051;-76
2021/04/18 07:33:52;;;;;;;23.60;9.47;;;7.10;99.90;;;;;;470121;249;27992;-78
2021/04/18 07:35:53;;;;;;;17.00;9.17;;;7.10;99.90;;;;;;470135;252;29374;-77
2021/04/18 07:37:57;;;;;;;11.60;8.20;;;7.20;99.90;;;;;;470025;252;28887;-78
2021/04/18 07:39:59;;;;;;;18.77;9.00;;;7.20;99.90;;;;;;470054;252;28210;-79
2021/04/18 07:42:03;;;;;;;9.40;7.60;;;7.20;99.90;;;;;;470167;250;27856;-76
2021/04/18 07:44:01;;;;;;;13.93;8.83;;;7.30;99.90;;;;;;469820;249;27723;-76
2021/04/18 07:46:02;;;;;;;11.53;8.40;;;7.40;99.90;;;;;;470251;252;27868;-75
2021/04/18 07:48:04;;;;;;;16.80;9.40;;;7.50;99.90;;;;;;470223;249;27752;-76
2021/04/18 07:50:05;;;;;;;14.77;9.40;;;7.70;99.90;;;;;;470119;252;27880;-74
2021/04/18 07:52:07;;;;;;;16.33;9.13;;;7.70;99.90;;;;;;470020;250;28042;-75
2021/04/18 07:54:07;;;;;;;12.43;9.37;;;7.50;99.90;;;;;;470452;252;27901;-76
2021/04/18 07:56:09;;;;;;;13.37;9.40;;;7.40;99.90;;;;;;470332;252;28350;-74
2021/04/18 07:58:10;;;;;;;14.20;9.03;;;7.30;99.90;;;;;;470309;252;28101;-76
2021/04/18 08:00:11;;;;;;;14.33;8.80;;;7.40;99.90;;;;;;470319;249;28517;-74
2021/04/18 08:02:12;;;;;;;18.60;9.47;;;7.30;99.90;;;;;;470156;250;28091;-78
2021/04/18 08:04:14;;;;;;;14.00;9.83;;;7.30;99.90;;;;;;470036;252;27643;-75
2021/04/18 08:06:15;;;;;;;17.63;10.07;;;7.30;99.90;;;;;;470243;252;27828;-75
2021/04/18 08:08:16;;;;;;;16.70;10.20;;;7.40;99.90;;;;;;470221;252;27860;-75
2021/04/18 08:10:17;;;;;;;16.00;10.07;;;7.40;99.90;;;;;;470117;249;27759;-75
2021/04/18 08:12:19;;;;;;;17.30;9.10;;;7.40;99.90;;;;;;470282;250;27699;-76
2021/04/18 08:14:20;;;;;;;11.43;8.33;;;7.60;99.90;;;;;;470295;252;27884;-76
2021/04/18 08:16:21;;;;;;;13.13;8.47;;;7.70;99.90;;;;;;470115;252;27902;-74
2021/04/18 08:18:22;;;;;;;20.20;9.87;;;7.70;99.90;;;;;;470211;252;28201;-76
2021/04/18 08:20:24;;;;;;;21.80;10.73;;;7.70;99.90;;;;;;470278;249;28405;-76
2021/04/18 08:22:25;;;;;;;19.03;10.53;;;7.60;99.90;;;;;;470272;252;27797;-75
2021/04/18 08:24:26;;;;;;;16.23;10.40;;;7.60;99.90;;;;;;470155;252;27987;-77
2021/04/18 08:26:27;;;;;;;15.90;10.30;;;7.50;99.90;;;;;;470063;252;27977;-79
2021/04/18 08:28:29;;;;;;;17.77;10.07;;;7.60;99.90;;;;;;470266;252;27366;-79
2021/04/18 08:30:30;;;;;;;16.87;10.80;;;7.50;99.90;;;;;;470142;250;27914;-75
2021/04/18 08:32:31;;;;;;;17.00;9.13;;;7.50;99.90;;;;;;470212;252;28089;-74
2021/04/18 08:34:32;;;;;;;12.67;8.60;;;7.50;99.90;;;;;;470192;252;28059;-75
2021/04/18 08:36:34;;;;;;;13.77;9.27;;;7.40;99.90;;;;;;470246;252;28204;-75
2021/04/18 08:38:35;;;;;;;12.57;9.93;;;7.60;99.90;;;;;;470236;249;28577;-76
2021/04/18 08:40:36;;;;;;;14.83;9.73;;;7.70;99.90;;;;;;470316;252;28314;-74
2021/04/18 08:42:39;;;;;;;19.57;10.10;;;7.90;99.90;;;;;;470156;250;27876;-77
2021/04/18 08:44:39;;;;;;;17.40;10.17;;;8.20;99.90;;;;;;470179;252;27856;-76
2021/04/18 08:46:40;;;;;;;19.30;10.30;;;8.10;99.90;;;;;;470259;252;27679;-76
2021/04/18 08:48:41;;;;;;;13.47;9.17;;;8.00;99.90;;;;;;470166;250;27844;-77
2021/04/18 08:50:42;;;;;;;14.00;9.27;;;8.20;99.90;;;;;;470193;252;27927;-77
2021/04/18 08:52:44;;;;;;;16.33;10.50;;;8.70;99.90;;;;;;470192;252;27705;-75
2021/04/18 08:54:45;;;;;;;15.27;9.73;;;8.70;99.90;;;;;;470121;252;27897;-75
2021/04/18 08:56:46;;;;;;;18.17;10.97;;;8.70;99.90;;;;;;470200;252;27892;-75
2021/04/18 08:58:47;;;;;;;14.73;9.80;;;8.70;99.90;;;;;;470100;252;29290;-77
2021/04/18 09:00:49;;;;;;;18.00;9.93;;;8.70;99.90;;;;;;470061;253;28371;-76
2021/04/18 09:02:50;;;;;;;15.43;9.07;;;8.70;99.90;;;;;;470203;252;27738;-75
2021/04/18 09:04:51;;;;;;;15.77;9.53;;;8.80;99.90;;;;;;470034;252;27883;-75
2021/04/18 09:06:52;;;;;;;14.77;10.03;;;8.90;99.90;;;;;;470322;252;27865;-75
2021/04/18 09:08:54;;;;;;;17.60;11.03;;;8.70;99.90;;;;;;470168;252;27893;-75
2021/04/18 09:10:55;;;;;;;14.50;10.40;;;8.60;99.90;;;;;;470115;252;28442;-75
2021/04/18 09:12:56;;;;;;;19.90;10.40;;;8.50;99.90;;;;;;470087;252;28225;-74
2021/04/18 09:14:57;;;;;;;15.53;10.17;;;8.60;99.90;;;;;;470144;249;28044;-77
2021/04/18 09:16:59;;;;;;;18.97;11.83;;;8.40;99.90;;;;;;470136;252;28516;-74
2021/04/18 09:19:00;;;;;;;15.60;11.10;;;8.40;99.90;;;;;;470180;252;28457;-74
2021/04/18 09:21:01;;;;;;;16.30;11.20;;;8.60;99.90;;;;;;470196;253;27957;-77
2021/04/18 09:23:02;;;;;;;20.23;11.37;;;8.60;99.90;;;;;;470227;252;27864;-75
2021/04/18 09:25:08;;;;;;;20.20;10.90;;;8.70;99.90;;;;;;470192;252;27949;-75
2021/04/18 09:27:08;;;;;;;13.87;9.70;;;8.80;99.90;;;;;;470120;252;27868;-74
2021/04/18 09:29:09;;;;;;;16.10;10.37;;;9.00;99.90;;;;;;470219;252;28471;-77
2021/04/18 09:31:10;;;;;;;16.17;10.60;;;9.00;99.90;;;;;;470202;252;28595;-75
2021/04/18 09:33:12;;;;;;;17.27;11.57;;;9.20;99.90;;;;;;470180;252;28181;-77
2021/04/18 09:35:13;;;;;;;16.50;10.50;;;9.30;99.90;;;;;;470277;252;27843;-75
2021/04/18 09:37:14;;;;;;;17.40;9.57;;;9.50;99.90;;;;;;470251;252;27879;-76
2021/04/18 09:39:15;;;;;;;13.50;9.43;;;9.40;99.90;;;;;;470012;252;28264;-76
2021/04/18 09:41:17;;;;;;;18.87;9.83;;;9.20;99.90;;;;;;470061;252;27996;-75
2021/04/18 09:43:18;;;;;;;15.30;10.67;;;9.40;99.90;;;;;;470200;252;28122;-78
2021/04/18 09:45:19;;;;;;;20.03;11.07;;;9.20;99.90;;;;;;470159;252;28288;-76
2021/04/18 09:47:20;;;;;;;16.90;10.50;;;9.40;99.90;;;;;;470185;252;28143;-76
2021/04/18 09:49:22;;;;;;;16.30;10.47;;;9.30;99.90;;;;;;470119;252;28805;-76
2021/04/18 09:51:23;;;;;;;13.93;10.00;;;9.40;99.90;;;;;;470054;252;28702;-75
2021/04/18 09:53:29;;;;;;;14.00;9.77;;;9.50;99.90;;;;;;470083;252;28202;-77
2021/04/18 09:55:29;;;;;;;16.10;9.63;;;9.50;99.90;;;;;;470198;252;27996;-75
2021/04/18 09:57:30;;;;;;;13.50;9.30;;;9.50;99.90;;;;;;470184;252;27969;-75
2021/04/18 09:59:31;;;;;;;16.23;10.33;;;9.60;99.90;;;;;;470210;252;28076;-76
2021/04/18 10:01:34;;;;;;;11.23;8.27;;;9.70;99.90;;;;;;470050;252;27967;-77
2021/04/18 10:03:33;;;;;;;12.93;8.90;;;9.90;99.90;;;;;;470111;252;28239;-76
2021/04/18 10:05:35;;;;;;;13.70;8.93;;;10.00;99.90;;;;;;470082;252;28553;-76
2021/04/18 10:07:36;;;;;;;16.87;10.43;;;10.30;99.90;;;;;;470056;253;28093;-77
2021/04/18 10:09:37;;;;;;;16.13;10.83;;;10.40;99.90;;;;;;470045;252;28937;-76
2021/04/18 10:11:38;;;;;;;14.13;10.33;;;10.00;99.90;;;;;;470026;252;29193;-76
2021/04/18 10:13:40;;;;;;;13.77;9.00;;;9.80;99.90;;;;;;470140;252;28107;-75
2021/04/18 10:15:41;;;;;;;15.10;10.50;;;9.90;99.90;;;;;;470140;252;28170;-75
2021/04/18 10:17:42;;;;;;;15.03;11.10;;;10.00;99.90;;;;;;470136;252;28074;-76
2021/04/18 10:19:43;;;;;;;17.10;10.13;;;10.10;99.90;;;;;;470074;252;28361;-76
2021/04/18 10:21:45;;;;;;;13.83;9.93;;;10.40;99.90;;;;;;470051;252;28385;-77
2021/04/18 10:23:46;;;;;;;15.10;10.37;;;10.40;99.90;;;;;;470155;252;28316;-75
2021/04/18 10:25:47;;;;;;;18.53;11.57;;;10.30;99.90;;;;;;470024;252;28763;-77
2021/04/18 10:27:49;;;;;;;12.10;9.97;;;10.50;99.90;;;;;;470128;252;28867;-76
2021/04/18 10:29:50;;;;;;;16.33;10.60;;;10.30;99.90;;;;;;470116;252;28054;-77
2021/04/18 10:31:51;;;;;;;16.20;10.63;;;10.30;99.90;;;;;;470200;252;28023;-75
2021/04/18 10:33:52;;;;;;;13.27;10.10;;;10.20;99.90;;;;;;470210;252;27961;-75